sensor_id;sensor_type;location;lat;lon;timestamp;P1;durP1;ratioP1;P2;durP2;ratioP2
76396;SDS011;66045;51.622;5.526;2023-04-03T00:00:49;1.60;;;0.90;;
76396;SDS011;66045;51.622;5.526;2023-04-03T00:03:14;1.73;;;0.85;;
76396;SDS011;66045;51.622;5.526;2023-04-03T00:05:40;2.53;;;0.90;;
76396;SDS011;66045;51.622;5.526;2023-04-03T00:08:06;1.75;;;0.85;;
76396;SDS011;66045;51.622;5.526;2023-04-03T00:10:33;1.52;;;1.00;;
76396;SDS011;66045;51.622;5.526;2023-04-03T00:12:58;1.27;;;0.85;;
76396;SDS011;66045;51.622;5.526;2023-04-03T00:15:24;2.15;;;1.00;;
76396;SDS011;66045;51.622;5.526;2023-04-03T00:17:49;0.85;;;0.70;;
76396;SDS011;66045;51.622;5.526;2023-04-03T00:20:15;4.15;;;0.90;;
76396;SDS011;66045;51.622;5.526;2023-04-03T00:22:40;1.25;;;0.90;;
76396;SDS011;66045;51.622;5.526;2023-04-03T00:25:06;1.27;;;0.82;;
76396;SDS011;66045;51.622;5.526;2023-04-03T00:27:32;1.73;;;1.00;;
76396;SDS011;66045;51.622;5.526;2023-04-03T00:29:57;1.70;;;0.90;;
76396;SDS011;66045;51.622;5.526;2023-04-03T00:32:22;1.50;;;0.90;;
76396;SDS011;66045;51.622;5.526;2023-04-03T00:34:48;2.00;;;1.10;;
76396;SDS011;66045;51.622;5.526;2023-04-03T00:37:13;2.17;;;1.00;;
76396;SDS011;66045;51.622;5.526;2023-04-03T00:39:39;1.52;;;0.80;;
76396;SDS011;66045;51.622;5.526;2023-04-03T00:42:04;2.15;;;0.75;;
76396;SDS011;66045;51.622;5.526;2023-04-03T00:46:58;3.72;;;1.10;;
76396;SDS011;66045;51.622;5.526;2023-04-03T00:49:23;1.70;;;0.90;;
76396;SDS011;66045;51.622;5.526;2023-04-03T00:51:49;2.05;;;1.05;;
76396;SDS011;66045;51.622;5.526;2023-04-03T00:54:14;1.80;;;0.93;;
76396;SDS011;66045;51.622;5.526;2023-04-03T00:56:40;2.10;;;1.00;;
76396;SDS011;66045;51.622;5.526;2023-04-03T00:59:08;2.22;;;1.20;;
76396;SDS011;66045;51.622;5.526;2023-04-03T01:01:36;2.17;;;1.10;;
76396;SDS011;66045;51.622;5.526;2023-04-03T01:04:02;2.55;;;0.80;;
76396;SDS011;66045;51.622;5.526;2023-04-03T01:06:31;2.58;;;0.90;;
76396;SDS011;66045;51.622;5.526;2023-04-03T01:09:00;1.83;;;1.10;;
76396;SDS011;66045;51.622;5.526;2023-04-03T01:11:26;1.10;;;0.88;;
76396;SDS011;66045;51.622;5.526;2023-04-03T01:13:52;1.85;;;1.10;;
76396;SDS011;66045;51.622;5.526;2023-04-03T01:16:18;1.83;;;1.27;;
76396;SDS011;66045;51.622;5.526;2023-04-03T01:18:44;2.70;;;0.98;;
76396;SDS011;66045;51.622;5.526;2023-04-03T01:26:20;1.83;;;1.00;;
76396;SDS011;66045;51.622;5.526;2023-04-03T01:28:46;1.92;;;0.75;;
76396;SDS011;66045;51.622;5.526;2023-04-03T01:33:51;1.20;;;0.80;;
76396;SDS011;66045;51.622;5.526;2023-04-03T01:36:18;2.53;;;1.20;;
76396;SDS011;66045;51.622;5.526;2023-04-03T01:38:49;2.20;;;1.00;;
76396;SDS011;66045;51.622;5.526;2023-04-03T01:41:14;1.65;;;0.82;;
76396;SDS011;66045;51.622;5.526;2023-04-03T01:43:40;0.88;;;0.80;;
76396;SDS011;66045;51.622;5.526;2023-04-03T01:46:06;1.50;;;0.90;;
76396;SDS011;66045;51.622;5.526;2023-04-03T01:48:32;1.20;;;0.90;;
76396;SDS011;66045;51.622;5.526;2023-04-03T01:50:58;1.63;;;0.95;;
76396;SDS011;66045;51.622;5.526;2023-04-03T01:53:23;2.88;;;1.10;;
76396;SDS011;66045;51.622;5.526;2023-04-03T01:55:49;2.28;;;1.00;;
76396;SDS011;66045;51.622;5.526;2023-04-03T01:58:14;1.85;;;1.00;;
76396;SDS011;66045;51.622;5.526;2023-04-03T02:00:40;1.77;;;0.90;;
76396;SDS011;66045;51.622;5.526;2023-04-03T02:03:05;1.50;;;0.95;;
76396;SDS011;66045;51.622;5.526;2023-04-03T02:05:31;1.60;;;1.02;;
76396;SDS011;66045;51.622;5.526;2023-04-03T02:07:57;1.98;;;1.05;;
76396;SDS011;66045;51.622;5.526;2023-04-03T02:10:22;1.48;;;1.02;;
76396;SDS011;66045;51.622;5.526;2023-04-03T02:12:48;1.25;;;0.88;;
76396;SDS011;66045;51.622;5.526;2023-04-03T02:15:13;1.50;;;1.10;;
76396;SDS011;66045;51.622;5.526;2023-04-03T02:17:38;1.85;;;1.02;;
76396;SDS011;66045;51.622;5.526;2023-04-03T02:20:04;2.35;;;1.17;;
76396;SDS011;66045;51.622;5.526;2023-04-03T02:22:30;1.73;;;1.00;;
76396;SDS011;66045;51.622;5.526;2023-04-03T02:24:55;1.75;;;1.00;;
76396;SDS011;66045;51.622;5.526;2023-04-03T02:27:21;2.42;;;0.98;;
76396;SDS011;66045;51.622;5.526;2023-04-03T02:29:46;1.90;;;1.10;;
76396;SDS011;66045;51.622;5.526;2023-04-03T02:32:11;2.47;;;1.00;;
76396;SDS011;66045;51.622;5.526;2023-04-03T02:34:37;2.22;;;1.13;;
76396;SDS011;66045;51.622;5.526;2023-04-03T02:37:02;2.80;;;1.10;;
76396;SDS011;66045;51.622;5.526;2023-04-03T02:39:27;2.45;;;1.10;;
76396;SDS011;66045;51.622;5.526;2023-04-03T02:41:53;1.55;;;1.00;;
76396;SDS011;66045;51.622;5.526;2023-04-03T02:44:18;2.17;;;0.93;;
76396;SDS011;66045;51.622;5.526;2023-04-03T02:46:44;1.98;;;1.00;;
76396;SDS011;66045;51.622;5.526;2023-04-03T02:49:09;1.92;;;1.20;;
76396;SDS011;66045;51.622;5.526;2023-04-03T02:51:35;2.10;;;0.85;;
76396;SDS011;66045;51.622;5.526;2023-04-03T02:54:00;3.08;;;1.00;;
76396;SDS011;66045;51.622;5.526;2023-04-03T02:56:25;2.40;;;1.08;;
76396;SDS011;66045;51.622;5.526;2023-04-03T02:58:52;3.60;;;1.10;;
76396;SDS011;66045;51.622;5.526;2023-04-03T03:01:17;3.28;;;1.20;;
76396;SDS011;66045;51.622;5.526;2023-04-03T03:03:43;1.80;;;0.90;;
76396;SDS011;66045;51.622;5.526;2023-04-03T03:06:09;1.55;;;1.00;;
76396;SDS011;66045;51.622;5.526;2023-04-03T03:08:37;1.42;;;1.00;;
76396;SDS011;66045;51.622;5.526;2023-04-03T03:11:03;2.15;;;1.27;;
76396;SDS011;66045;51.622;5.526;2023-04-03T03:13:29;1.70;;;1.00;;
76396;SDS011;66045;51.622;5.526;2023-04-03T03:15:55;1.08;;;0.85;;
76396;SDS011;66045;51.622;5.526;2023-04-03T03:18:21;1.85;;;0.90;;
76396;SDS011;66045;51.622;5.526;2023-04-03T03:20:46;1.98;;;1.02;;
76396;SDS011;66045;51.622;5.526;2023-04-03T03:23:12;1.42;;;1.00;;
76396;SDS011;66045;51.622;5.526;2023-04-03T03:25:38;2.30;;;1.15;;
76396;SDS011;66045;51.622;5.526;2023-04-03T03:28:04;2.72;;;0.95;;
76396;SDS011;66045;51.622;5.526;2023-04-03T03:30:30;2.47;;;1.10;;
76396;SDS011;66045;51.622;5.526;2023-04-03T03:32:55;2.22;;;1.05;;
76396;SDS011;66045;51.622;5.526;2023-04-03T03:35:21;1.58;;;0.90;;
76396;SDS011;66045;51.622;5.526;2023-04-03T03:37:46;4.03;;;1.13;;
76396;SDS011;66045;51.622;5.526;2023-04-03T03:40:11;1.25;;;0.82;;
76396;SDS011;66045;51.622;5.526;2023-04-03T03:42:38;2.45;;;1.00;;
76396;SDS011;66045;51.622;5.526;2023-04-03T03:45:03;2.28;;;1.10;;
76396;SDS011;66045;51.622;5.526;2023-04-03T03:47:29;2.25;;;1.00;;
76396;SDS011;66045;51.622;5.526;2023-04-03T03:49:55;1.77;;;0.88;;
76396;SDS011;66045;51.622;5.526;2023-04-03T03:52:20;2.08;;;1.00;;
76396;SDS011;66045;51.622;5.526;2023-04-03T03:54:45;1.35;;;0.98;;
76396;SDS011;66045;51.622;5.526;2023-04-03T03:57:11;1.75;;;1.00;;
76396;SDS011;66045;51.622;5.526;2023-04-03T03:59:36;1.25;;;1.05;;
76396;SDS011;66045;51.622;5.526;2023-04-03T04:02:01;1.60;;;0.93;;
76396;SDS011;66045;51.622;5.526;2023-04-03T04:04:27;3.08;;;1.13;;
76396;SDS011;66045;51.622;5.526;2023-04-03T04:06:52;2.17;;;1.10;;
76396;SDS011;66045;51.622;5.526;2023-04-03T04:09:17;1.60;;;0.95;;
76396;SDS011;66045;51.622;5.526;2023-04-03T04:11:43;1.42;;;1.00;;
76396;SDS011;66045;51.622;5.526;2023-04-03T04:14:08;1.92;;;0.90;;
76396;SDS011;66045;51.622;5.526;2023-04-03T04:16:35;2.13;;;1.20;;
76396;SDS011;66045;51.622;5.526;2023-04-03T04:19:00;2.53;;;1.17;;
76396;SDS011;66045;51.622;5.526;2023-04-03T04:21:26;2.38;;;1.00;;
76396;SDS011;66045;51.622;5.526;2023-04-03T04:23:51;1.38;;;0.95;;
76396;SDS011;66045;51.622;5.526;2023-04-03T04:26:17;1.63;;;1.02;;
76396;SDS011;66045;51.622;5.526;2023-04-03T04:28:42;1.55;;;1.00;;
76396;SDS011;66045;51.622;5.526;2023-04-03T04:31:07;1.80;;;1.10;;
76396;SDS011;66045;51.622;5.526;2023-04-03T04:33:33;1.58;;;1.10;;
76396;SDS011;66045;51.622;5.526;2023-04-03T04:35:58;2.30;;;1.10;;
76396;SDS011;66045;51.622;5.526;2023-04-03T04:38:23;1.80;;;1.02;;
76396;SDS011;66045;51.622;5.526;2023-04-03T04:40:49;2.10;;;1.10;;
76396;SDS011;66045;51.622;5.526;2023-04-03T04:43:16;2.33;;;1.35;;
76396;SDS011;66045;51.622;5.526;2023-04-03T04:45:41;1.98;;;1.00;;
76396;SDS011;66045;51.622;5.526;2023-04-03T04:48:07;1.70;;;1.08;;
76396;SDS011;66045;51.622;5.526;2023-04-03T04:50:32;2.78;;;1.10;;
76396;SDS011;66045;51.622;5.526;2023-04-03T04:52:58;2.90;;;1.15;;
76396;SDS011;66045;51.622;5.526;2023-04-03T04:55:23;1.63;;;0.98;;
76396;SDS011;66045;51.622;5.526;2023-04-03T04:57:49;2.22;;;0.90;;
76396;SDS011;66045;51.622;5.526;2023-04-03T05:00:14;1.88;;;1.00;;
76396;SDS011;66045;51.622;5.526;2023-04-03T05:02:40;1.42;;;0.93;;
76396;SDS011;66045;51.622;5.526;2023-04-03T05:05:06;3.20;;;1.27;;
76396;SDS011;66045;51.622;5.526;2023-04-03T05:07:32;1.85;;;1.08;;
76396;SDS011;66045;51.622;5.526;2023-04-03T05:09:57;1.63;;;0.95;;
76396;SDS011;66045;51.622;5.526;2023-04-03T05:12:22;1.20;;;1.00;;
76396;SDS011;66045;51.622;5.526;2023-04-03T05:14:48;1.92;;;1.02;;
76396;SDS011;66045;51.622;5.526;2023-04-03T05:17:13;2.22;;;1.10;;
76396;SDS011;66045;51.622;5.526;2023-04-03T05:19:39;1.17;;;0.90;;
76396;SDS011;66045;51.622;5.526;2023-04-03T05:22:04;1.15;;;0.85;;
76396;SDS011;66045;51.622;5.526;2023-04-03T05:24:29;1.95;;;1.00;;
76396;SDS011;66045;51.622;5.526;2023-04-03T05:26:55;2.42;;;0.95;;
76396;SDS011;66045;51.622;5.526;2023-04-03T05:29:20;3.03;;;1.17;;
76396;SDS011;66045;51.622;5.526;2023-04-03T05:31:46;1.73;;;0.90;;
76396;SDS011;66045;51.622;5.526;2023-04-03T05:34:15;1.88;;;0.90;;
76396;SDS011;66045;51.622;5.526;2023-04-03T05:36:40;1.65;;;1.00;;
76396;SDS011;66045;51.622;5.526;2023-04-03T05:39:06;1.88;;;0.95;;
76396;SDS011;66045;51.622;5.526;2023-04-03T05:41:32;1.88;;;0.93;;
76396;SDS011;66045;51.622;5.526;2023-04-03T05:43:57;1.88;;;1.00;;
76396;SDS011;66045;51.622;5.526;2023-04-03T05:46:22;2.40;;;1.00;;
76396;SDS011;66045;51.622;5.526;2023-04-03T05:48:48;1.67;;;1.00;;
76396;SDS011;66045;51.622;5.526;2023-04-03T05:51:14;1.55;;;1.00;;
76396;SDS011;66045;51.622;5.526;2023-04-03T05:53:46;2.30;;;1.00;;
76396;SDS011;66045;51.622;5.526;2023-04-03T05:56:12;1.40;;;0.95;;
76396;SDS011;66045;51.622;5.526;2023-04-03T05:58:38;3.00;;;1.15;;
76396;SDS011;66045;51.622;5.526;2023-04-03T06:01:04;1.70;;;0.95;;
76396;SDS011;66045;51.622;5.526;2023-04-03T06:03:30;1.98;;;0.95;;
76396;SDS011;66045;51.622;5.526;2023-04-03T06:05:56;2.38;;;0.90;;
76396;SDS011;66045;51.622;5.526;2023-04-03T06:08:22;2.67;;;1.00;;
76396;SDS011;66045;51.622;5.526;2023-04-03T06:10:48;3.60;;;0.95;;
76396;SDS011;66045;51.622;5.526;2023-04-03T06:13:15;2.45;;;0.95;;
76396;SDS011;66045;51.622;5.526;2023-04-03T06:15:41;4.30;;;0.90;;
76396;SDS011;66045;51.622;5.526;2023-04-03T06:18:06;3.15;;;1.33;;
76396;SDS011;66045;51.622;5.526;2023-04-03T06:20:31;2.22;;;1.00;;
76396;SDS011;66045;51.622;5.526;2023-04-03T06:22:57;2.70;;;1.15;;
76396;SDS011;66045;51.622;5.526;2023-04-03T06:25:22;2.33;;;0.98;;
76396;SDS011;66045;51.622;5.526;2023-04-03T06:27:48;2.63;;;1.13;;
76396;SDS011;66045;51.622;5.526;2023-04-03T06:30:13;2.88;;;1.10;;
76396;SDS011;66045;51.622;5.526;2023-04-03T06:32:39;2.65;;;0.98;;
76396;SDS011;66045;51.622;5.526;2023-04-03T06:35:05;2.67;;;1.00;;
76396;SDS011;66045;51.622;5.526;2023-04-03T06:37:31;2.65;;;1.00;;
76396;SDS011;66045;51.622;5.526;2023-04-03T06:39:57;4.18;;;1.20;;
76396;SDS011;66045;51.622;5.526;2023-04-03T06:42:25;2.33;;;1.20;;
76396;SDS011;66045;51.622;5.526;2023-04-03T06:44:50;3.22;;;1.30;;
76396;SDS011;66045;51.622;5.526;2023-04-03T06:47:16;2.47;;;1.08;;
76396;SDS011;66045;51.622;5.526;2023-04-03T06:49:42;4.63;;;1.13;;
76396;SDS011;66045;51.622;5.526;2023-04-03T06:52:07;2.95;;;1.02;;
76396;SDS011;66045;51.622;5.526;2023-04-03T06:54:34;3.85;;;1.65;;
76396;SDS011;66045;51.622;5.526;2023-04-03T06:57:00;3.03;;;1.20;;
76396;SDS011;66045;51.622;5.526;2023-04-03T06:59:26;4.90;;;1.45;;
76396;SDS011;66045;51.622;5.526;2023-04-03T07:01:51;4.80;;;1.20;;
76396;SDS011;66045;51.622;5.526;2023-04-03T07:04:17;4.47;;;1.30;;
76396;SDS011;66045;51.622;5.526;2023-04-03T07:06:44;2.58;;;1.08;;
76396;SDS011;66045;51.622;5.526;2023-04-03T07:09:09;3.40;;;1.40;;
76396;SDS011;66045;51.622;5.526;2023-04-03T07:11:35;3.40;;;1.40;;
76396;SDS011;66045;51.622;5.526;2023-04-03T07:14:01;4.20;;;1.33;;
76396;SDS011;66045;51.622;5.526;2023-04-03T07:16:27;2.58;;;1.10;;
76396;SDS011;66045;51.622;5.526;2023-04-03T07:18:53;4.15;;;1.30;;
76396;SDS011;66045;51.622;5.526;2023-04-03T07:21:18;4.85;;;1.30;;
76396;SDS011;66045;51.622;5.526;2023-04-03T07:23:43;4.13;;;1.50;;
76396;SDS011;66045;51.622;5.526;2023-04-03T07:26:09;4.60;;;1.30;;
76396;SDS011;66045;51.622;5.526;2023-04-03T07:28:35;5.65;;;1.83;;
76396;SDS011;66045;51.622;5.526;2023-04-03T07:31:05;2.65;;;1.30;;
76396;SDS011;66045;51.622;5.526;2023-04-03T07:33:36;4.25;;;1.30;;
76396;SDS011;66045;51.622;5.526;2023-04-03T07:36:02;3.67;;;1.30;;
76396;SDS011;66045;51.622;5.526;2023-04-03T07:38:27;4.95;;;1.40;;
76396;SDS011;66045;51.622;5.526;2023-04-03T07:40:53;4.40;;;1.15;;
76396;SDS011;66045;51.622;5.526;2023-04-03T07:43:19;4.85;;;1.50;;
76396;SDS011;66045;51.622;5.526;2023-04-03T07:45:46;3.17;;;1.42;;
76396;SDS011;66045;51.622;5.526;2023-04-03T07:48:14;4.80;;;1.50;;
76396;SDS011;66045;51.622;5.526;2023-04-03T07:50:41;5.20;;;1.55;;
76396;SDS011;66045;51.622;5.526;2023-04-03T07:53:07;3.20;;;1.20;;
76396;SDS011;66045;51.622;5.526;2023-04-03T07:55:33;4.90;;;1.40;;
76396;SDS011;66045;51.622;5.526;2023-04-03T07:57:58;3.03;;;1.27;;
76396;SDS011;66045;51.622;5.526;2023-04-03T08:00:24;3.20;;;1.30;;
76396;SDS011;66045;51.622;5.526;2023-04-03T08:02:50;3.38;;;1.35;;
76396;SDS011;66045;51.622;5.526;2023-04-03T08:05:19;5.93;;;1.42;;
76396;SDS011;66045;51.622;5.526;2023-04-03T08:07:46;3.22;;;1.38;;
76396;SDS011;66045;51.622;5.526;2023-04-03T08:10:13;2.15;;;1.10;;
76396;SDS011;66045;51.622;5.526;2023-04-03T08:12:39;4.15;;;1.38;;
76396;SDS011;66045;51.622;5.526;2023-04-03T08:15:05;4.03;;;1.40;;
76396;SDS011;66045;51.622;5.526;2023-04-03T08:17:32;4.75;;;1.33;;
76396;SDS011;66045;51.622;5.526;2023-04-03T08:19:57;4.32;;;1.35;;
76396;SDS011;66045;51.622;5.526;2023-04-03T08:22:23;2.58;;;1.27;;
76396;SDS011;66045;51.622;5.526;2023-04-03T08:24:48;4.40;;;1.40;;
76396;SDS011;66045;51.622;5.526;2023-04-03T08:27:14;4.30;;;1.30;;
76396;SDS011;66045;51.622;5.526;2023-04-03T08:29:40;3.88;;;1.20;;
76396;SDS011;66045;51.622;5.526;2023-04-03T08:32:05;3.22;;;1.30;;
76396;SDS011;66045;51.622;5.526;2023-04-03T08:34:31;3.22;;;1.40;;
76396;SDS011;66045;51.622;5.526;2023-04-03T08:36:59;4.25;;;1.52;;
76396;SDS011;66045;51.622;5.526;2023-04-03T08:39:25;2.90;;;1.20;;
76396;SDS011;66045;51.622;5.526;2023-04-03T08:41:51;4.22;;;1.48;;
76396;SDS011;66045;51.622;5.526;2023-04-03T08:49:47;2.85;;;1.20;;
76396;SDS011;66045;51.622;5.526;2023-04-03T08:53:01;4.47;;;1.80;;
76396;SDS011;66045;51.622;5.526;2023-04-03T08:55:05;3.57;;;1.30;;
76396;SDS011;66045;51.622;5.526;2023-04-03T08:57:41;2.53;;;1.25;;
76396;SDS011;66045;51.622;5.526;2023-04-03T09:00:17;5.45;;;1.30;;
76396;SDS011;66045;51.622;5.526;2023-04-03T09:02:49;3.78;;;1.23;;
76396;SDS011;66045;51.622;5.526;2023-04-03T09:17:03;3.20;;;1.20;;
76396;SDS011;66045;51.622;5.526;2023-04-03T09:19:39;2.57;;;1.40;;
76396;SDS011;66045;51.622;5.526;2023-04-03T09:27:46;2.67;;;1.08;;
76396;SDS011;66045;51.622;5.526;2023-04-03T09:30:13;2.00;;;0.90;;
76396;SDS011;66045;51.622;5.526;2023-04-03T09:32:40;1.83;;;0.93;;
76396;SDS011;66045;51.622;5.526;2023-04-03T09:37:40;1.35;;;0.90;;
76396;SDS011;66045;51.622;5.526;2023-04-03T09:42:55;3.40;;;1.15;;
76396;SDS011;66045;51.622;5.526;2023-04-03T09:48:13;4.47;;;0.95;;
76396;SDS011;66045;51.622;5.526;2023-04-03T09:51:04;4.43;;;0.80;;
76396;SDS011;66045;51.622;5.526;2023-04-03T09:53:36;3.50;;;1.20;;
76396;SDS011;66045;51.622;5.526;2023-04-03T09:56:25;5.35;;;1.23;;
76396;SDS011;66045;51.622;5.526;2023-04-03T10:04:10;4.60;;;1.27;;
76396;SDS011;66045;51.622;5.526;2023-04-03T10:06:37;4.75;;;0.90;;
76396;SDS011;66045;51.622;5.526;2023-04-03T10:09:27;3.42;;;1.00;;
76396;SDS011;66045;51.622;5.526;2023-04-03T10:14:33;3.70;;;1.00;;
76396;SDS011;66045;51.622;5.526;2023-04-03T10:25:20;3.92;;;1.00;;
76396;SDS011;66045;51.622;5.526;2023-04-03T10:27:57;4.00;;;0.85;;
76396;SDS011;66045;51.622;5.526;2023-04-03T10:30:30;4.47;;;1.10;;
76396;SDS011;66045;51.622;5.526;2023-04-03T10:47:23;2.17;;;0.88;;
76396;SDS011;66045;51.622;5.526;2023-04-03T10:49:59;3.03;;;1.00;;
76396;SDS011;66045;51.622;5.526;2023-04-03T10:57:56;2.83;;;0.90;;
76396;SDS011;66045;51.622;5.526;2023-04-03T11:00:37;2.42;;;0.90;;
76396;SDS011;66045;51.622;5.526;2023-04-03T11:03:14;1.65;;;0.73;;
76396;SDS011;66045;51.622;5.526;2023-04-03T11:05:49;2.15;;;0.90;;
76396;SDS011;66045;51.622;5.526;2023-04-03T11:11:17;3.08;;;0.80;;
76396;SDS011;66045;51.622;5.526;2023-04-03T11:14:05;4.47;;;1.02;;
76396;SDS011;66045;51.622;5.526;2023-04-03T11:16:42;1.20;;;0.70;;
76396;SDS011;66045;51.622;5.526;2023-04-03T11:19:22;2.85;;;1.17;;
76396;SDS011;66045;51.622;5.526;2023-04-03T11:22:08;2.25;;;0.85;;
76396;SDS011;66045;51.622;5.526;2023-04-03T11:24:41;2.70;;;0.80;;
76396;SDS011;66045;51.622;5.526;2023-04-03T11:27:14;0.90;;;0.77;;
76396;SDS011;66045;51.622;5.526;2023-04-03T11:29:47;1.08;;;0.70;;
76396;SDS011;66045;51.622;5.526;2023-04-03T11:34:58;2.15;;;0.90;;
76396;SDS011;66045;51.622;5.526;2023-04-03T11:37:31;0.70;;;0.65;;
76396;SDS011;66045;51.622;5.526;2023-04-03T11:40:24;3.17;;;0.80;;
76396;SDS011;66045;51.622;5.526;2023-04-03T11:43:04;2.38;;;0.88;;
76396;SDS011;66045;51.622;5.526;2023-04-03T11:45:34;2.55;;;0.90;;
76396;SDS011;66045;51.622;5.526;2023-04-03T11:48:45;1.65;;;0.90;;
76396;SDS011;66045;51.622;5.526;2023-04-03T11:50:56;2.00;;;0.73;;
76396;SDS011;66045;51.622;5.526;2023-04-03T11:53:27;1.73;;;0.85;;
76396;SDS011;66045;51.622;5.526;2023-04-03T11:55:54;2.78;;;0.80;;
76396;SDS011;66045;51.622;5.526;2023-04-03T11:58:24;2.28;;;0.90;;
76396;SDS011;66045;51.622;5.526;2023-04-03T12:00:53;2.92;;;0.90;;
76396;SDS011;66045;51.622;5.526;2023-04-03T12:05:57;2.28;;;0.80;;
76396;SDS011;66045;51.622;5.526;2023-04-03T12:08:44;1.35;;;0.60;;
76396;SDS011;66045;51.622;5.526;2023-04-03T12:19:13;1.83;;;0.70;;
76396;SDS011;66045;51.622;5.526;2023-04-03T12:24:29;2.08;;;0.60;;
76396;SDS011;66045;51.622;5.526;2023-04-03T12:40:52;2.53;;;0.80;;
76396;SDS011;66045;51.622;5.526;2023-04-03T12:46:19;1.75;;;0.80;;
76396;SDS011;66045;51.622;5.526;2023-04-03T12:48:54;2.17;;;0.70;;
76396;SDS011;66045;51.622;5.526;2023-04-03T12:54:13;3.28;;;0.80;;
76396;SDS011;66045;51.622;5.526;2023-04-03T12:56:46;1.02;;;0.65;;
76396;SDS011;66045;51.622;5.526;2023-04-03T12:59:22;0.90;;;0.77;;
76396;SDS011;66045;51.622;5.526;2023-04-03T13:01:58;2.33;;;0.90;;
76396;SDS011;66045;51.622;5.526;2023-04-03T13:04:24;2.28;;;0.80;;
76396;SDS011;66045;51.622;5.526;2023-04-03T13:06:51;1.15;;;0.73;;
76396;SDS011;66045;51.622;5.526;2023-04-03T13:11:57;2.47;;;0.80;;
76396;SDS011;66045;51.622;5.526;2023-04-03T13:14:25;2.28;;;0.80;;
76396;SDS011;66045;51.622;5.526;2023-04-03T13:16:56;2.20;;;0.93;;
76396;SDS011;66045;51.622;5.526;2023-04-03T13:19:29;1.85;;;0.70;;
76396;SDS011;66045;51.622;5.526;2023-04-03T13:22:02;2.63;;;0.80;;
76396;SDS011;66045;51.622;5.526;2023-04-03T13:24:31;2.50;;;0.70;;
76396;SDS011;66045;51.622;5.526;2023-04-03T13:27:02;2.03;;;0.80;;
76396;SDS011;66045;51.622;5.526;2023-04-03T13:29:30;2.28;;;0.80;;
76396;SDS011;66045;51.622;5.526;2023-04-03T13:31:58;1.50;;;0.70;;
76396;SDS011;66045;51.622;5.526;2023-04-03T13:34:26;1.48;;;0.77;;
76396;SDS011;66045;51.622;5.526;2023-04-03T13:39:22;2.50;;;0.77;;
76396;SDS011;66045;51.622;5.526;2023-04-03T13:42:14;2.05;;;0.80;;
76396;SDS011;66045;51.622;5.526;2023-04-03T13:44:41;3.08;;;0.88;;
76396;SDS011;66045;51.622;5.526;2023-04-03T13:49:34;3.75;;;0.80;;
76396;SDS011;66045;51.622;5.526;2023-04-03T13:52:17;2.13;;;1.00;;
76396;SDS011;66045;51.622;5.526;2023-04-03T13:54:47;2.47;;;0.90;;
76396;SDS011;66045;51.622;5.526;2023-04-03T13:57:16;1.70;;;0.80;;
76396;SDS011;66045;51.622;5.526;2023-04-03T13:59:42;2.17;;;0.88;;
76396;SDS011;66045;51.622;5.526;2023-04-03T14:07:01;3.15;;;0.80;;
76396;SDS011;66045;51.622;5.526;2023-04-03T14:09:27;0.95;;;0.70;;
76396;SDS011;66045;51.622;5.526;2023-04-03T14:11:55;1.35;;;0.70;;
76396;SDS011;66045;51.622;5.526;2023-04-03T14:14:26;1.20;;;0.70;;
76396;SDS011;66045;51.622;5.526;2023-04-03T14:16:56;2.05;;;1.00;;
76396;SDS011;66045;51.622;5.526;2023-04-03T14:21:59;1.95;;;0.70;;
76396;SDS011;66045;51.622;5.526;2023-04-03T14:24:25;1.95;;;0.80;;
76396;SDS011;66045;51.622;5.526;2023-04-03T14:26:52;1.90;;;0.80;;
76396;SDS011;66045;51.622;5.526;2023-04-03T14:29:22;2.65;;;1.10;;
76396;SDS011;66045;51.622;5.526;2023-04-03T14:31:48;2.80;;;1.00;;
76396;SDS011;66045;51.622;5.526;2023-04-03T14:34:14;2.05;;;0.77;;
76396;SDS011;66045;51.622;5.526;2023-04-03T14:36:42;5.43;;;0.85;;
76396;SDS011;66045;51.622;5.526;2023-04-03T14:39:10;2.03;;;0.70;;
76396;SDS011;66045;51.622;5.526;2023-04-03T14:41:41;1.38;;;1.00;;
76396;SDS011;66045;51.622;5.526;2023-04-03T14:44:07;2.28;;;0.90;;
76396;SDS011;66045;51.622;5.526;2023-04-03T14:46:34;2.72;;;0.90;;
76396;SDS011;66045;51.622;5.526;2023-04-03T14:51:27;1.98;;;0.75;;
76396;SDS011;66045;51.622;5.526;2023-04-03T14:53:53;1.95;;;0.93;;
76396;SDS011;66045;51.622;5.526;2023-04-03T14:56:23;2.40;;;0.80;;
76396;SDS011;66045;51.622;5.526;2023-04-03T14:58:52;1.90;;;0.90;;
76396;SDS011;66045;51.622;5.526;2023-04-03T15:01:21;2.60;;;1.08;;
76396;SDS011;66045;51.622;5.526;2023-04-03T15:03:47;2.20;;;0.80;;
76396;SDS011;66045;51.622;5.526;2023-04-03T15:06:13;2.00;;;0.82;;
76396;SDS011;66045;51.622;5.526;2023-04-03T15:08:39;1.45;;;0.77;;
76396;SDS011;66045;51.622;5.526;2023-04-03T15:11:06;2.30;;;0.90;;
76396;SDS011;66045;51.622;5.526;2023-04-03T15:13:32;1.17;;;0.75;;
76396;SDS011;66045;51.622;5.526;2023-04-03T15:15:57;1.77;;;0.70;;
76396;SDS011;66045;51.622;5.526;2023-04-03T15:18:26;2.08;;;0.90;;
76396;SDS011;66045;51.622;5.526;2023-04-03T15:20:55;4.93;;;0.73;;
76396;SDS011;66045;51.622;5.526;2023-04-03T15:23:21;1.30;;;0.75;;
76396;SDS011;66045;51.622;5.526;2023-04-03T15:25:51;4.00;;;1.35;;
76396;SDS011;66045;51.622;5.526;2023-04-03T15:30:54;2.03;;;0.80;;
76396;SDS011;66045;51.622;5.526;2023-04-03T15:33:20;2.90;;;0.80;;
76396;SDS011;66045;51.622;5.526;2023-04-03T15:35:46;1.77;;;1.05;;
76396;SDS011;66045;51.622;5.526;2023-04-03T15:38:11;2.30;;;0.88;;
76396;SDS011;66045;51.622;5.526;2023-04-03T15:40:37;1.98;;;0.80;;
76396;SDS011;66045;51.622;5.526;2023-04-03T15:43:03;2.15;;;0.82;;
76396;SDS011;66045;51.622;5.526;2023-04-03T15:45:29;1.83;;;1.00;;
76396;SDS011;66045;51.622;5.526;2023-04-03T15:47:55;1.80;;;0.70;;
76396;SDS011;66045;51.622;5.526;2023-04-03T15:50:22;3.13;;;0.90;;
76396;SDS011;66045;51.622;5.526;2023-04-03T15:52:49;2.63;;;0.73;;
76396;SDS011;66045;51.622;5.526;2023-04-03T15:55:19;1.90;;;0.80;;
76396;SDS011;66045;51.622;5.526;2023-04-03T15:57:48;1.50;;;0.70;;
76396;SDS011;66045;51.622;5.526;2023-04-03T16:00:14;2.17;;;0.90;;
76396;SDS011;66045;51.622;5.526;2023-04-03T16:02:41;2.22;;;0.80;;
76396;SDS011;66045;51.622;5.526;2023-04-03T16:05:08;1.48;;;0.80;;
76396;SDS011;66045;51.622;5.526;2023-04-03T16:07:36;1.63;;;0.90;;
76396;SDS011;66045;51.622;5.526;2023-04-03T16:10:06;4.40;;;0.93;;
76396;SDS011;66045;51.622;5.526;2023-04-03T16:12:33;1.80;;;0.80;;
76396;SDS011;66045;51.622;5.526;2023-04-03T16:14:58;1.85;;;0.77;;
76396;SDS011;66045;51.622;5.526;2023-04-03T16:17:24;1.30;;;0.90;;
76396;SDS011;66045;51.622;5.526;2023-04-03T16:19:52;2.45;;;0.80;;
76396;SDS011;66045;51.622;5.526;2023-04-03T16:22:18;1.38;;;0.80;;
76396;SDS011;66045;51.622;5.526;2023-04-03T16:24:44;2.42;;;0.90;;
76396;SDS011;66045;51.622;5.526;2023-04-03T16:27:09;0.90;;;0.70;;
76396;SDS011;66045;51.622;5.526;2023-04-03T16:29:34;3.08;;;0.85;;
76396;SDS011;66045;51.622;5.526;2023-04-03T16:32:00;2.47;;;1.00;;
76396;SDS011;66045;51.622;5.526;2023-04-03T16:34:26;1.77;;;0.80;;
76396;SDS011;66045;51.622;5.526;2023-04-03T16:36:52;2.38;;;0.90;;
76396;SDS011;66045;51.622;5.526;2023-04-03T16:39:18;2.58;;;0.90;;
76396;SDS011;66045;51.622;5.526;2023-04-03T16:41:43;2.28;;;1.00;;
76396;SDS011;66045;51.622;5.526;2023-04-03T16:44:08;2.60;;;1.10;;
76396;SDS011;66045;51.622;5.526;2023-04-03T16:46:34;3.10;;;1.20;;
76396;SDS011;66045;51.622;5.526;2023-04-03T16:49:00;3.17;;;0.90;;
76396;SDS011;66045;51.622;5.526;2023-04-03T16:51:25;2.55;;;0.80;;
76396;SDS011;66045;51.622;5.526;2023-04-03T16:53:51;3.08;;;0.88;;
76396;SDS011;66045;51.622;5.526;2023-04-03T16:56:16;3.08;;;1.23;;
76396;SDS011;66045;51.622;5.526;2023-04-03T16:58:41;3.08;;;0.73;;
76396;SDS011;66045;51.622;5.526;2023-04-03T17:01:14;3.65;;;1.20;;
76396;SDS011;66045;51.622;5.526;2023-04-03T17:03:41;4.20;;;0.93;;
76396;SDS011;66045;51.622;5.526;2023-04-03T17:06:07;2.88;;;0.85;;